CMB weather

Bandaranaike International Colombo Airport
Colombo, Western Province, Sri Lanka

Public forecast

Using degrees Celsius for public forecast. Weather courtesy of forecast.io.

Current aviation weather report (METAR) for Bandaranaike International Colombo Airport

Retrieved 2019/11/21 20:10 UTC (4 minutes ago):

VCBI 212010Z VRB03KT 9999 FEW017 25/23 Q1010 NOSIG

Aviation forecast (TAF) for Bandaranaike International Colombo Airport

Retrieved 2019/11/21 18:00 UTC (2 hours ago):

TAF VCBI 211700Z 2118/2224 VRB05KT 9999 FEW018 TX31/2208Z TN24/2200Z TEMPO 2200/2203 5000 BR PROB30 TEMPO 2213/2216 6000 -TSRA/SHRA SCT016 FEW018CB